createdAt,value
2022-12-12T00:00:00.780Z,11.35
2022-12-12T00:02:46.448Z,10.90
2022-12-12T00:05:32.018Z,11.07
2022-12-12T00:08:17.594Z,12.13
2022-12-12T00:11:04.041Z,12.00
2022-12-12T00:13:50.190Z,11.60
2022-12-12T00:16:35.892Z,13.07
2022-12-12T00:19:21.650Z,13.70
2022-12-12T00:22:07.100Z,13.52
2022-12-12T00:24:52.724Z,13.07
2022-12-12T00:27:38.361Z,13.57
2022-12-12T00:30:24.317Z,13.57
2022-12-12T00:33:09.982Z,12.02
2022-12-12T00:35:55.853Z,12.70
2022-12-12T00:38:41.284Z,14.02
2022-12-12T00:41:26.881Z,13.85
2022-12-12T00:44:12.946Z,13.00
2022-12-12T00:46:58.936Z,13.50
2022-12-12T00:49:44.351Z,13.35
2022-12-12T00:52:29.820Z,14.77
2022-12-12T00:55:15.663Z,14.48
2022-12-12T00:58:01.380Z,13.43
2022-12-12T01:00:47.018Z,14.15
2022-12-12T01:03:37.724Z,15.45
2022-12-12T01:06:23.493Z,14.75
2022-12-12T01:09:09.148Z,15.30
2022-12-12T01:11:54.656Z,16.90
2022-12-12T01:14:40.693Z,16.67
2022-12-12T01:17:26.490Z,16.48
2022-12-12T01:20:19.528Z,15.77
2022-12-12T01:23:05.327Z,17.80
2022-12-12T01:25:58.947Z,18.33
2022-12-12T01:28:44.948Z,18.40
2022-12-12T01:31:30.810Z,17.17
2022-12-12T01:34:17.041Z,15.07
2022-12-12T01:37:03.004Z,16.58
2022-12-12T01:39:48.686Z,16.50
2022-12-12T01:42:34.476Z,16.08
2022-12-12T01:45:58.038Z,17.48
2022-12-12T01:48:52.586Z,16.90
2022-12-12T01:51:40.116Z,14.93
2022-12-12T01:54:29.188Z,15.02
2022-12-12T01:57:20.769Z,15.50
2022-12-12T02:00:08.782Z,15.40
2022-12-12T02:02:55.917Z,14.45
2022-12-12T02:06:03.476Z,14.65
2022-12-12T02:08:51.549Z,15.57
2022-12-12T02:11:46.348Z,14.50
2022-12-12T02:14:36.522Z,14.77
2022-12-12T02:17:43.553Z,13.77
2022-12-12T02:21:01.741Z,14.60
2022-12-12T02:24:11.791Z,14.45
2022-12-12T02:27:16.380Z,13.48
2022-12-12T02:30:24.695Z,15.38
2022-12-12T02:33:15.793Z,13.57
2022-12-12T02:36:07.401Z,13.70
2022-12-12T02:39:45.660Z,12.98
2022-12-12T02:42:57.173Z,13.38
2022-12-12T02:45:51.226Z,11.75
2022-12-12T02:48:42.827Z,12.23
2022-12-12T02:51:30.778Z,12.15
2022-12-12T02:54:19.935Z,12.68
2022-12-12T02:57:19.281Z,12.57
2022-12-12T03:00:10.219Z,12.30
2022-12-12T03:03:31.020Z,12.38
2022-12-12T03:06:50.025Z,12.52
2022-12-12T03:09:48.137Z,13.00
2022-12-12T03:12:48.981Z,13.32
2022-12-12T03:15:47.735Z,12.38
2022-12-12T03:19:11.486Z,13.38
2022-12-12T03:22:20.862Z,9.32
2022-12-12T03:25:22.466Z,12.20
2022-12-12T03:28:18.513Z,12.73
2022-12-12T03:31:09.334Z,11.93
2022-12-12T03:34:03.237Z,11.90
2022-12-12T03:37:09.744Z,11.02
2022-12-12T03:39:57.626Z,11.38
2022-12-12T03:43:14.741Z,10.27
2022-12-12T03:46:18.831Z,9.93
2022-12-12T03:49:12.007Z,10.93
2022-12-12T03:52:13.881Z,10.48
2022-12-12T03:55:26.983Z,9.80
2022-12-12T03:58:21.627Z,9.63
2022-12-12T04:01:12.508Z,9.13
2022-12-12T04:04:16.532Z,9.05
2022-12-12T04:07:34.860Z,9.15
2022-12-12T04:10:46.422Z,8.98
2022-12-12T04:13:52.348Z,9.35
2022-12-12T04:16:42.835Z,9.00
2022-12-12T04:20:30.260Z,8.40
2022-12-12T04:23:53.418Z,8.52
2022-12-12T04:26:47.721Z,8.88
2022-12-12T04:29:54.164Z,8.93
2022-12-12T04:32:56.597Z,9.90
2022-12-12T04:35:46.242Z,9.63
2022-12-12T04:38:33.541Z,9.18
2022-12-12T04:41:21.235Z,9.18
2022-12-12T04:44:09.967Z,9.57
2022-12-12T04:46:56.573Z,9.38
2022-12-12T04:49:45.341Z,9.55
2022-12-12T04:52:33.745Z,9.65
2022-12-12T04:55:31.342Z,11.43
2022-12-12T04:58:17.660Z,11.38
2022-12-12T05:01:52.683Z,12.18
2022-12-12T05:04:58.647Z,12.40
2022-12-12T05:07:56.963Z,13.05
2022-12-12T05:10:50.710Z,14.27
2022-12-12T05:13:39.500Z,14.52
2022-12-12T05:16:32.992Z,13.85
2022-12-12T05:19:19.018Z,14.05
2022-12-12T05:22:04.662Z,13.57
2022-12-12T05:24:50.366Z,13.30
2022-12-12T05:27:35.914Z,14.45
2022-12-12T05:30:21.555Z,15.48
2022-12-12T05:33:07.122Z,15.85
2022-12-12T05:35:52.693Z,14.82
2022-12-12T05:38:38.536Z,14.65
2022-12-12T05:41:23.947Z,15.43
2022-12-12T05:44:09.573Z,15.32
2022-12-12T05:46:55.192Z,14.35
2022-12-12T05:49:40.782Z,13.82
2022-12-12T05:52:27.473Z,14.77
2022-12-12T05:55:13.400Z,14.90
2022-12-12T05:57:59.009Z,14.48
2022-12-12T06:00:46.583Z,15.02
2022-12-12T06:03:32.969Z,14.18
2022-12-12T06:06:18.656Z,15.50
2022-12-12T06:09:04.426Z,15.90
2022-12-12T06:11:50.065Z,16.30
2022-12-12T06:14:35.947Z,16.42
2022-12-12T06:17:21.534Z,15.93
2022-12-12T06:20:07.773Z,17.65
2022-12-12T06:22:54.097Z,17.48
2022-12-12T06:25:40.079Z,18.55
2022-12-12T06:28:25.861Z,18.65
2022-12-12T06:31:12.552Z,18.88
2022-12-12T06:33:58.353Z,18.30
2022-12-12T06:36:44.332Z,17.95
2022-12-12T06:39:30.235Z,18.02
2022-12-12T06:42:16.229Z,17.05
2022-12-12T06:45:01.954Z,17.92
2022-12-12T06:47:47.604Z,17.02
2022-12-12T06:50:33.417Z,16.90
2022-12-12T06:53:19.032Z,16.90
2022-12-12T06:56:15.581Z,17.35
2022-12-12T06:59:01.330Z,17.98
2022-12-12T07:01:47.616Z,17.42
2022-12-12T07:04:33.696Z,17.15
2022-12-12T07:07:19.477Z,17.10
2022-12-12T07:10:06.222Z,17.42
2022-12-12T07:12:57.454Z,17.75
2022-12-12T07:15:51.227Z,16.88
2022-12-12T07:18:37.125Z,17.85
2022-12-12T07:21:22.999Z,16.92
2022-12-12T07:24:08.596Z,19.25
2022-12-12T07:26:54.129Z,18.52
2022-12-12T07:29:39.807Z,19.42
2022-12-12T07:32:25.341Z,19.15
2022-12-12T07:35:10.948Z,19.08
2022-12-12T07:37:57.037Z,19.17
2022-12-12T07:40:43.517Z,18.95
2022-12-12T07:43:29.156Z,17.95
2022-12-12T07:46:21.179Z,16.23
2022-12-12T07:49:06.928Z,15.30
2022-12-12T07:51:52.353Z,15.77
2022-12-12T07:54:38.129Z,16.90
2022-12-12T07:57:23.965Z,16.50
2022-12-12T08:00:13.184Z,17.33
2022-12-12T08:02:58.700Z,19.23
2022-12-12T08:05:44.481Z,19.20
2022-12-12T08:08:30.072Z,18.35
2022-12-12T08:11:17.807Z,17.33
2022-12-12T08:14:12.746Z,17.33
2022-12-12T08:16:59.264Z,17.90
2022-12-12T08:19:45.196Z,18.45
2022-12-12T08:22:32.260Z,17.08
2022-12-12T08:25:19.230Z,17.88
2022-12-12T08:28:05.400Z,17.38
2022-12-12T08:30:51.719Z,17.50
2022-12-12T08:33:37.589Z,18.38
2022-12-12T08:36:32.227Z,17.48
2022-12-12T08:39:18.396Z,16.63
2022-12-12T08:42:04.756Z,15.98
2022-12-12T08:44:50.653Z,16.08
2022-12-12T08:47:36.490Z,17.33
2022-12-12T08:50:21.999Z,16.90
2022-12-12T08:53:07.803Z,18.17
2022-12-12T08:55:54.848Z,16.42
2022-12-12T08:58:40.420Z,16.55
2022-12-12T09:01:27.800Z,16.48
2022-12-12T09:04:13.684Z,17.67
2022-12-12T09:07:02.392Z,17.73
2022-12-12T09:09:52.625Z,18.48
2022-12-12T09:12:41.637Z,18.27
2022-12-12T09:15:27.899Z,16.90
2022-12-12T09:18:13.556Z,18.17
2022-12-12T09:20:59.717Z,17.80
2022-12-12T09:23:45.313Z,18.67
2022-12-12T09:26:30.960Z,18.75
2022-12-12T09:29:16.803Z,17.83
2022-12-12T09:32:06.503Z,17.98
2022-12-12T09:34:52.082Z,18.00
2022-12-12T09:37:37.625Z,18.63
2022-12-12T09:40:35.958Z,19.63
2022-12-12T09:43:29.632Z,18.70
2022-12-12T09:46:26.630Z,18.35
2022-12-12T09:49:22.637Z,17.40
2022-12-12T09:52:32.139Z,19.23
2022-12-12T09:55:20.830Z,19.13
2022-12-12T09:58:36.362Z,18.55
2022-12-12T10:01:36.852Z,18.48
2022-12-12T10:04:29.119Z,18.52
2022-12-12T10:07:37.334Z,17.45
2022-12-12T10:10:28.862Z,17.92
2022-12-12T10:13:17.954Z,17.08
2022-12-12T10:16:12.898Z,17.92
2022-12-12T10:19:12.948Z,17.45
2022-12-12T10:22:08.561Z,18.02
2022-12-12T10:25:20.301Z,17.05
2022-12-12T10:28:16.072Z,16.73
2022-12-12T10:31:31.536Z,17.73
2022-12-12T10:34:51.427Z,17.95
2022-12-12T10:37:46.286Z,18.25
2022-12-12T10:40:45.649Z,16.88
2022-12-12T10:43:43.491Z,17.92
2022-12-12T10:46:39.631Z,17.48
2022-12-12T10:49:25.612Z,17.08
2022-12-12T10:52:19.591Z,16.55
2022-12-12T10:55:17.609Z,16.88
2022-12-12T10:58:05.466Z,16.73
2022-12-12T11:00:51.237Z,16.10
2022-12-12T11:03:44.946Z,16.80
2022-12-12T11:09:28.741Z,17.60
2022-12-12T11:12:15.864Z,19.38
2022-12-12T11:15:14.154Z,17.55
2022-12-12T11:18:05.867Z,17.65
2022-12-12T11:21:01.967Z,18.42
2022-12-12T11:23:52.516Z,17.42
2022-12-12T11:26:49.235Z,18.15
2022-12-12T11:29:46.091Z,17.88
2022-12-12T11:32:44.096Z,17.48
2022-12-12T11:35:45.608Z,18.05
2022-12-12T11:38:39.940Z,18.38
2022-12-12T11:41:25.652Z,18.07
2022-12-12T11:44:25.695Z,17.67
2022-12-12T11:47:20.760Z,17.45
2022-12-12T11:50:27.306Z,16.17
2022-12-12T11:53:12.856Z,17.70
2022-12-12T11:56:10.747Z,17.40
2022-12-12T11:59:24.512Z,17.88
2022-12-12T12:02:19.090Z,18.02
2022-12-12T12:05:16.970Z,16.83
2022-12-12T12:08:11.977Z,17.98
2022-12-12T12:11:25.266Z,16.80
2022-12-12T12:14:31.045Z,17.50
2022-12-12T12:17:29.873Z,16.02
2022-12-12T12:20:32.935Z,17.25
2022-12-12T12:23:42.483Z,16.60
2022-12-12T12:26:54.074Z,16.52
2022-12-12T12:29:57.779Z,16.58
2022-12-12T12:33:17.907Z,15.95
2022-12-12T12:36:10.097Z,16.58
2022-12-12T12:39:01.536Z,16.60
2022-12-12T12:41:56.204Z,15.88
2022-12-12T12:45:17.928Z,15.55
2022-12-12T12:48:27.458Z,16.20
2022-12-12T12:51:22.997Z,15.38
2022-12-12T12:54:20.456Z,16.45
2022-12-12T12:57:05.975Z,16.67
2022-12-12T12:59:56.490Z,17.02
2022-12-12T13:02:57.181Z,17.90
2022-12-12T13:05:47.418Z,16.75
2022-12-12T13:08:53.814Z,15.13
2022-12-12T13:11:44.830Z,16.38
2022-12-12T13:15:05.266Z,16.70
2022-12-12T13:18:14.648Z,15.40
2022-12-12T13:21:12.811Z,15.48
2022-12-12T13:24:17.214Z,14.90
2022-12-12T13:27:26.906Z,16.52
2022-12-12T13:30:22.901Z,15.00
2022-12-12T13:33:26.863Z,16.23
2022-12-12T13:42:14.910Z,16.83
2022-12-12T13:45:36.411Z,16.98
2022-12-12T13:48:27.959Z,16.77
2022-12-12T13:51:28.828Z,17.65
2022-12-12T13:54:14.898Z,17.95
2022-12-12T13:57:00.876Z,17.38
2022-12-12T13:59:52.948Z,17.20
2022-12-12T14:02:45.627Z,17.10
2022-12-12T14:05:35.754Z,17.23
2022-12-12T14:08:33.559Z,16.98
2022-12-12T14:11:36.098Z,16.80
2022-12-12T14:14:24.631Z,17.25
2022-12-12T14:17:23.507Z,16.95
2022-12-12T14:20:29.921Z,16.15
2022-12-12T14:23:24.417Z,16.20
2022-12-12T14:26:28.488Z,17.98
2022-12-12T14:32:11.704Z,16.33
2022-12-12T14:35:15.541Z,16.70
2022-12-12T14:38:27.702Z,15.25
2022-12-12T14:41:21.244Z,16.02
2022-12-12T14:44:37.895Z,17.25
2022-12-12T14:47:24.547Z,16.30
2022-12-12T14:50:16.494Z,16.45
2022-12-12T14:53:03.822Z,16.13
2022-12-12T14:56:16.998Z,15.85
2022-12-12T14:59:06.601Z,16.85
2022-12-12T15:02:05.401Z,14.70
2022-12-12T15:04:58.049Z,15.32
2022-12-12T15:07:46.759Z,15.63
2022-12-12T15:10:33.187Z,15.05
2022-12-12T15:13:21.170Z,14.80
2022-12-12T15:16:07.177Z,18.02
2022-12-12T15:18:55.587Z,17.27
2022-12-12T15:21:46.877Z,16.15
2022-12-12T15:24:38.819Z,17.70
2022-12-12T15:27:46.136Z,18.92
2022-12-12T15:30:41.886Z,19.10
2022-12-12T15:33:27.786Z,18.88
2022-12-12T15:36:25.344Z,19.30
2022-12-12T15:39:16.486Z,20.25
2022-12-12T15:42:02.406Z,21.42
2022-12-12T15:44:50.665Z,21.00
2022-12-12T15:47:37.454Z,22.05
2022-12-12T15:50:28.490Z,20.08
2022-12-12T15:53:24.660Z,19.40
2022-12-12T15:56:12.101Z,18.95
2022-12-12T15:59:09.890Z,19.98
2022-12-12T16:01:55.798Z,20.42
2022-12-12T16:04:41.755Z,20.95
2022-12-12T16:07:27.381Z,20.02
2022-12-12T16:10:22.379Z,20.27
2022-12-12T16:13:40.013Z,19.92
2022-12-12T16:16:45.467Z,20.48
2022-12-12T16:19:53.627Z,21.05
2022-12-12T16:22:48.809Z,19.48
2022-12-12T16:25:34.497Z,20.25
2022-12-12T16:28:25.339Z,20.65
2022-12-12T16:31:17.135Z,21.30
2022-12-12T16:34:04.496Z,21.27
2022-12-12T16:36:52.776Z,21.88
2022-12-12T16:39:38.369Z,20.38
2022-12-12T16:42:24.418Z,20.30
2022-12-12T16:45:11.723Z,20.10
2022-12-12T16:47:58.651Z,20.58
2022-12-12T16:50:45.901Z,19.98
2022-12-12T16:53:32.939Z,18.67
2022-12-12T16:56:20.168Z,21.17
2022-12-12T16:59:05.960Z,23.35
2022-12-12T17:01:51.406Z,24.60
2022-12-12T17:04:37.104Z,28.75
2022-12-12T17:07:22.799Z,28.77
2022-12-12T17:10:09.522Z,26.40
2022-12-12T17:12:55.362Z,23.92
2022-12-12T17:15:41.073Z,21.85
2022-12-12T17:18:27.263Z,20.73
2022-12-12T17:21:14.416Z,21.30
2022-12-12T17:24:00.075Z,21.85
2022-12-12T17:26:46.220Z,20.55
2022-12-12T17:29:34.379Z,19.30
2022-12-12T17:32:24.347Z,19.45
2022-12-12T17:35:10.531Z,20.02
2022-12-12T17:37:59.157Z,18.42
2022-12-12T17:40:44.938Z,23.80
2022-12-12T17:43:30.447Z,25.75
2022-12-12T17:46:17.789Z,23.05
2022-12-12T17:49:03.774Z,21.13
2022-12-12T17:51:49.201Z,21.00
2022-12-12T17:54:34.863Z,19.20
2022-12-12T17:57:24.342Z,21.90
2022-12-12T18:00:11.861Z,21.48
2022-12-12T18:03:00.693Z,21.05
2022-12-12T18:05:46.721Z,21.05
2022-12-12T18:08:32.831Z,21.50
2022-12-12T18:11:31.375Z,21.58
2022-12-12T18:14:19.399Z,21.10
2022-12-12T18:17:15.413Z,20.88
2022-12-12T18:20:01.284Z,20.73
2022-12-12T18:22:46.756Z,23.85
2022-12-12T18:25:36.089Z,26.23
2022-12-12T18:28:21.662Z,22.85
2022-12-12T18:31:08.498Z,22.98
2022-12-12T18:33:54.819Z,22.45
2022-12-12T18:36:40.680Z,20.77
2022-12-12T18:39:26.267Z,22.27
2022-12-12T18:42:11.988Z,22.90
2022-12-12T18:44:57.824Z,22.13
2022-12-12T18:47:43.853Z,24.08
2022-12-12T18:50:29.563Z,24.27
2022-12-12T18:53:15.244Z,23.75
2022-12-12T18:56:04.804Z,25.17
2022-12-12T18:58:53.198Z,25.10
2022-12-12T19:01:39.056Z,25.38
2022-12-12T19:04:25.041Z,25.30
2022-12-12T19:07:11.652Z,26.23
2022-12-12T19:09:57.356Z,24.90
2022-12-12T19:12:43.204Z,26.00
2022-12-12T19:15:28.808Z,27.58
2022-12-12T19:18:14.352Z,26.20
2022-12-12T19:21:07.928Z,27.05
2022-12-12T19:23:54.588Z,24.85
2022-12-12T19:26:44.354Z,25.63
2022-12-12T19:29:33.445Z,25.83
2022-12-12T19:32:19.385Z,24.23
2022-12-12T19:35:05.450Z,27.48
2022-12-12T19:37:50.933Z,26.08
2022-12-12T19:40:36.737Z,27.13
2022-12-12T19:43:22.733Z,28.27
2022-12-12T19:46:11.248Z,28.08
2022-12-12T19:49:05.503Z,28.83
2022-12-12T19:51:51.272Z,27.85
2022-12-12T19:54:36.930Z,27.02
2022-12-12T19:57:26.242Z,28.10
2022-12-12T20:00:12.713Z,29.15
2022-12-12T20:02:59.178Z,26.35
2022-12-12T20:05:49.110Z,24.33
2022-12-12T20:08:39.220Z,24.23
2022-12-12T20:11:25.279Z,24.38
2022-12-12T20:14:14.331Z,25.75
2022-12-12T20:17:02.318Z,26.25
2022-12-12T20:19:49.459Z,26.35
2022-12-12T20:22:34.905Z,27.83
2022-12-12T20:25:20.649Z,26.65
2022-12-12T20:28:06.122Z,27.27
2022-12-12T20:30:53.666Z,24.95
2022-12-12T20:33:40.301Z,24.70
2022-12-12T20:36:31.805Z,25.98
2022-12-12T20:39:20.838Z,25.58
2022-12-12T20:42:06.519Z,30.15
2022-12-12T20:44:52.815Z,29.85
2022-12-12T20:47:39.255Z,28.60
2022-12-12T20:50:24.765Z,29.67
2022-12-12T20:53:11.031Z,30.58
2022-12-12T20:56:05.218Z,27.45
2022-12-12T20:58:56.169Z,29.38
2022-12-12T21:01:41.765Z,30.80
2022-12-12T21:04:28.187Z,27.00
2022-12-12T21:07:14.230Z,30.92
2022-12-12T21:09:59.783Z,27.98
2022-12-12T21:12:45.210Z,30.33
2022-12-12T21:15:30.873Z,31.20
2022-12-12T21:18:16.668Z,33.03
2022-12-12T21:21:02.741Z,31.80
2022-12-12T21:23:48.462Z,31.77
2022-12-12T21:26:34.925Z,32.05
2022-12-12T21:29:20.571Z,32.17
2022-12-12T21:32:06.363Z,31.48
2022-12-12T21:34:52.789Z,32.10
2022-12-12T21:37:40.619Z,33.83
2022-12-12T21:40:26.883Z,33.72
2022-12-12T21:43:12.507Z,33.53
2022-12-12T21:45:58.113Z,32.50
2022-12-12T21:48:44.023Z,34.40
2022-12-12T21:51:29.937Z,35.10
2022-12-12T21:54:16.097Z,37.33
2022-12-12T21:57:02.579Z,36.70
2022-12-12T21:59:50.396Z,36.42
2022-12-12T22:02:36.003Z,38.58
2022-12-12T22:05:21.484Z,35.95
2022-12-12T22:08:07.069Z,37.78
2022-12-12T22:10:54.501Z,36.80
2022-12-12T22:13:40.634Z,37.80
2022-12-12T22:16:26.309Z,36.42
2022-12-12T22:19:13.366Z,35.55
2022-12-12T22:21:59.573Z,39.08
2022-12-12T22:24:45.383Z,37.03
2022-12-12T22:27:33.957Z,39.17
2022-12-12T22:30:19.633Z,36.83
2022-12-12T22:33:05.208Z,37.13
2022-12-12T22:35:50.809Z,38.97
2022-12-12T22:38:38.385Z,38.28
2022-12-12T22:41:24.762Z,39.17
2022-12-12T22:44:14.730Z,37.72
2022-12-12T22:47:00.476Z,39.58
2022-12-12T22:49:45.939Z,41.42
2022-12-12T22:52:32.065Z,40.08
2022-12-12T22:55:18.171Z,40.63
2022-12-12T22:58:03.766Z,39.17
2022-12-12T23:00:58.490Z,40.83
2022-12-12T23:03:45.083Z,38.90
2022-12-12T23:06:32.922Z,39.50
2022-12-12T23:09:21.822Z,40.08
2022-12-12T23:12:07.816Z,38.15
2022-12-12T23:14:53.832Z,36.17
2022-12-12T23:17:39.597Z,35.55
2022-12-12T23:20:25.343Z,34.88
2022-12-12T23:23:11.053Z,34.45
2022-12-12T23:26:07.920Z,33.08
2022-12-12T23:28:54.080Z,32.97
2022-12-12T23:31:39.737Z,31.23
2022-12-12T23:34:25.896Z,33.50
2022-12-12T23:37:11.394Z,32.10
2022-12-12T23:39:57.394Z,32.00
2022-12-12T23:42:45.037Z,32.08
2022-12-12T23:45:30.659Z,30.20
2022-12-12T23:48:16.555Z,30.33
2022-12-12T23:51:02.781Z,31.42
2022-12-12T23:53:49.605Z,31.38
2022-12-12T23:56:35.588Z,32.15
2022-12-12T23:59:22.071Z,31.77
